Time;durP1;ratioP1;P1;durP2;ratioP2;P2;SDS_P1;SDS_P2;PMS_P1;PMS_P2;Temp;Humidity;BMP_temperature;BMP_pressure;BME280_temperature;BME280_humidity;BME280_pressure;Samples;Min_cycle;Max_cycle;Signal;HPM_P1;HPM_P2
2022/05/30 00:01:23;;;;;;;7.07;2.40;;;;;;;8.85;83.07;101184.38;5009869;28;20041;-90
2022/05/30 00:03:49;;;;;;;8.80;2.83;;;;;;;8.86;82.87;101180.81;5009087;28;20022;-89
2022/05/30 00:06:17;;;;;;;4.93;2.20;;;;;;;8.84;82.31;101182.66;5009080;28;20120;-88
2022/05/30 00:08:43;;;;;;;7.15;2.50;;;;;;;8.78;82.37;101174.94;5008381;28;20073;-88
2022/05/30 00:11:11;;;;;;;6.10;2.47;;;;;;;8.79;83.42;101175.81;5009150;28;20065;-90
2022/05/30 00:13:37;;;;;;;7.68;2.40;;;;;;;8.70;82.46;101169.06;5009930;28;20030;-88
2022/05/30 00:16:08;;;;;;;5.38;2.35;;;;;;;8.59;81.96;101169.44;4990231;28;20038;-88
2022/05/30 00:18:34;;;;;;;9.77;2.90;;;;;;;8.55;81.88;101170.50;5008839;28;20045;-88
2022/05/30 00:20:59;;;;;;;6.72;2.47;;;;;;;8.52;81.67;101167.06;5014482;28;20399;-89
2022/05/30 00:23:25;;;;;;;8.00;2.90;;;;;;;8.46;81.40;101169.03;5013575;28;20022;-88
2022/05/30 00:25:50;;;;;;;9.63;2.88;;;;;;;8.43;81.69;101166.50;5014421;28;20487;-89
2022/05/30 00:28:16;;;;;;;5.15;2.60;;;;;;;8.40;81.47;101168.38;5013326;28;20087;-89
2022/05/30 00:30:42;;;;;;;5.50;2.22;;;;;;;8.38;81.36;101167.59;5014323;28;20133;-89
2022/05/30 00:33:08;;;;;;;7.72;2.65;;;;;;;8.33;82.39;101148.31;5014776;28;20105;-90
2022/05/30 00:35:33;;;;;;;9.00;3.00;;;;;;;8.39;81.77;101162.22;5014317;28;20041;-90
2022/05/30 00:37:59;;;;;;;10.35;2.63;;;;;;;8.38;81.65;101160.50;5012941;28;20072;-88
2022/05/30 00:40:24;;;;;;;8.90;2.63;;;;;;;8.32;82.22;101147.44;5014997;28;20034;-89
2022/05/30 00:42:49;;;;;;;8.50;2.58;;;;;;;8.39;82.30;101156.91;5014189;28;20034;-89
2022/05/30 00:45:15;;;;;;;8.07;2.55;;;;;;;8.43;81.75;101155.03;5015114;28;20034;-88
2022/05/30 00:47:41;;;;;;;6.97;3.00;;;;;;;8.40;81.67;101158.69;5013195;28;20041;-91
2022/05/30 00:50:08;;;;;;;7.22;2.83;;;;;;;8.38;81.77;101159.63;5014298;28;20026;-90
2022/05/30 00:52:39;;;;;;;8.52;2.90;;;;;;;8.39;82.52;101151.63;5013240;28;20037;-91
2022/05/30 00:55:14;;;;;;;8.20;2.40;;;;;;;8.41;82.35;101154.22;5014705;28;20372;-88
2022/05/30 00:57:42;;;;;;;10.35;2.65;;;;;;;8.39;81.87;101153.41;5012234;28;20038;-90
2022/05/30 01:00:08;;;;;;;16.20;3.10;;;;;;;8.42;82.81;101159.47;5014586;28;20480;-89
2022/05/30 01:02:36;;;;;;;5.97;2.47;;;;;;;8.43;83.60;101155.03;5014527;28;20038;-90
2022/05/30 01:08:04;;;;;;;10.27;2.70;;;;;;;8.39;82.91;101146.31;4968081;28;20049;-88
2022/05/30 01:10:29;;;;;;;4.95;2.60;;;;;;;8.38;82.74;101147.25;4972809;28;20413;-89
2022/05/30 01:12:57;;;;;;;6.47;2.55;;;;;;;8.29;82.73;101141.38;4963853;28;20486;-90
2022/05/30 01:15:26;;;;;;;7.78;2.70;;;;;;;8.27;83.21;101153.81;4953495;29;20054;-90
2022/05/30 01:17:57;;;;;;;7.55;2.90;;;;;;;8.24;83.66;101141.56;4964157;28;20046;-89
2022/05/30 01:20:32;;;;;;;9.15;3.22;;;;;;;8.17;83.80;101146.19;4973979;28;20165;-89
2022/05/30 01:23:09;;;;;;;6.75;2.70;;;;;;;8.17;84.19;101142.69;4972948;28;20078;-89
2022/05/30 01:26:04;;;;;;;6.03;2.40;;;;;;;8.12;84.11;101142.84;4972651;28;20129;-89
2022/05/30 01:28:39;;;;;;;8.60;3.00;;;;;;;8.14;84.60;101140.13;4970794;28;20085;-90
2022/05/30 01:31:05;;;;;;;8.93;2.50;;;;;;;8.17;84.43;101138.25;4970034;28;20145;-88
2022/05/30 01:33:32;;;;;;;8.73;3.38;;;;;;;8.04;84.27;101117.53;4970957;28;20046;-89
2022/05/30 01:35:58;;;;;;;10.73;3.10;;;;;;;8.06;84.85;101139.53;4967938;28;20065;-89
2022/05/30 01:38:24;;;;;;;10.05;2.83;;;;;;;7.96;84.38;101131.94;4950095;28;20429;-91
2022/05/30 01:40:50;;;;;;;4.55;2.58;;;;;;;7.96;85.33;101133.72;4950010;29;20162;-89
2022/05/30 01:43:16;;;;;;;11.48;3.17;;;;;;;7.94;85.22;101130.25;4991128;28;20042;-90
2022/05/30 01:45:41;;;;;;;7.28;2.78;;;;;;;7.94;84.99;101127.59;4991332;28;20077;-88
2022/05/30 01:48:06;;;;;;;9.20;3.20;;;;;;;7.92;84.96;101130.31;5009633;28;20022;-88
2022/05/30 01:50:32;;;;;;;5.47;2.80;;;;;;;7.92;84.89;101130.31;5010727;28;20030;-89
2022/05/30 01:52:58;;;;;;;10.88;3.25;;;;;;;7.89;85.14;101130.41;5010813;28;20025;-88
2022/05/30 01:55:23;;;;;;;8.32;2.85;;;;;;;7.88;85.23;101125.16;5011251;28;20478;-88
2022/05/30 01:57:48;;;;;;;9.77;3.10;;;;;;;7.91;85.50;101125.94;5008123;28;20086;-90
2022/05/30 02:00:14;;;;;;;9.27;3.17;;;;;;;7.91;84.68;101125.94;5011594;28;20057;-89
2022/05/30 02:02:39;;;;;;;7.80;2.97;;;;;;;7.90;84.93;101128.63;5010625;28;20033;-89
2022/05/30 02:05:06;;;;;;;8.98;3.10;;;;;;;7.91;85.60;101125.94;5011265;28;20153;-89
2022/05/30 02:07:31;;;;;;;7.10;3.28;;;;;;;7.90;85.04;101118.00;5009094;28;20486;-88
2022/05/30 02:09:57;;;;;;;10.85;3.45;;;;;;;7.93;85.91;101120.56;5010551;28;20030;-89
2022/05/30 02:12:22;;;;;;;7.78;2.83;;;;;;;7.90;85.50;101118.91;5011499;28;20033;-89
2022/05/30 02:14:47;;;;;;;8.23;2.90;;;;;;;7.89;85.40;101124.25;5011721;28;20399;-89
2022/05/30 02:17:13;;;;;;;6.65;2.88;;;;;;;7.87;85.59;101124.31;5011935;28;20034;-89
2022/05/30 02:19:41;;;;;;;6.50;3.13;;;;;;;7.87;85.61;101124.31;5013489;28;20018;-91
2022/05/30 02:22:10;;;;;;;11.38;3.25;;;;;;;7.87;85.67;101131.41;5011972;28;20041;-88
2022/05/30 02:24:36;;;;;;;5.78;3.10;;;;;;;7.92;86.41;101127.66;5010125;28;20595;-89
2022/05/30 02:27:02;;;;;;;8.10;3.20;;;;;;;7.88;86.11;101120.72;5008842;28;20037;-88
2022/05/30 02:29:28;;;;;;;15.45;3.38;;;;;;;7.90;86.02;101124.22;5010706;28;20042;-88
2022/05/30 02:31:53;;;;;;;10.95;3.38;;;;;;;7.88;85.66;101120.72;5009965;28;20401;-90
2022/05/30 02:37:02;;;;;;;13.00;3.20;;;;;;;7.80;86.04;101120.13;5008201;28;20037;-88
2022/05/30 02:39:29;;;;;;;9.57;3.30;;;;;;;7.73;86.47;101118.59;5010042;28;20026;-89
2022/05/30 02:41:55;;;;;;;8.27;3.10;;;;;;;7.66;86.42;101117.97;5009375;28;20055;-89
2022/05/30 02:44:23;;;;;;;8.45;3.38;;;;;;;7.64;87.02;101116.28;5009577;28;20041;-88
2022/05/30 02:46:50;;;;;;;10.52;3.28;;;;;;;7.65;87.59;101115.34;5008639;28;20094;-90
2022/05/30 02:49:16;;;;;;;8.85;3.17;;;;;;;7.69;88.46;101114.31;5010020;28;20061;-89
2022/05/30 02:51:43;;;;;;;7.78;3.30;;;;;;;7.69;88.17;101122.28;5009439;28;20113;-90
2022/05/30 02:54:08;;;;;;;7.57;3.60;;;;;;;7.71;88.13;101117.81;5009741;28;20072;-88
2022/05/30 02:56:34;;;;;;;10.07;3.33;;;;;;;7.72;87.99;101120.38;5007942;28;20029;-90
2022/05/30 02:59:01;;;;;;;5.30;3.25;;;;;;;7.74;87.83;101115.06;5009145;28;20463;-89
2022/05/30 03:01:26;;;;;;;9.15;3.75;;;;;;;7.73;88.36;101114.19;5009635;28;20022;-90
2022/05/30 03:03:52;;;;;;;11.40;4.25;;;;;;;7.70;87.75;101105.50;5009415;28;20172;-88
2022/05/30 03:06:18;;;;;;;12.68;3.95;;;;;;;7.67;88.42;101110.88;5008005;28;20033;-89
2022/05/30 03:08:43;;;;;;;9.80;3.97;;;;;;;7.63;88.70;101117.19;5008996;28;20186;-89
2022/05/30 03:11:10;;;;;;;8.13;3.85;;;;;;;7.57;88.98;101114.78;4991971;28;20034;-88
2022/05/30 03:13:36;;;;;;;8.95;3.78;;;;;;;7.51;88.84;101118.47;4989747;28;20022;-89
2022/05/30 03:16:02;;;;;;;10.27;3.90;;;;;;;7.44;88.86;101122.25;4997280;28;20026;-89
2022/05/30 03:18:27;;;;;;;6.20;3.03;;;;;;;7.40;89.23;101124.16;5009338;28;20034;-89
2022/05/30 03:20:52;;;;;;;9.50;3.40;;;;;;;7.35;89.24;101126.06;5009118;28;20049;-92
2022/05/30 03:23:17;;;;;;;12.00;3.92;;;;;;;7.24;89.20;101128.22;5010283;28;20430;-89
2022/05/30 03:25:43;;;;;;;7.97;3.38;;;;;;;7.19;89.21;101123.06;5007422;28;20030;-89
2022/05/30 03:28:08;;;;;;;7.03;3.97;;;;;;;7.14;89.74;101129.41;5009086;28;20087;-90
2022/05/30 03:30:37;;;;;;;9.30;3.80;;;;;;;7.09;90.21;101115.47;5008971;28;20539;-89
2022/05/30 03:33:07;;;;;;;7.78;3.92;;;;;;;7.07;90.63;101125.25;5010020;28;20562;-88
2022/05/30 03:35:33;;;;;;;8.38;3.97;;;;;;;7.03;90.90;101127.13;5008889;28;20033;-89
2022/05/30 03:37:58;;;;;;;9.75;3.63;;;;;;;6.99;90.91;101126.34;5010292;28;20484;-88
2022/05/30 03:40:25;;;;;;;8.93;3.53;;;;;;;6.96;91.13;101134.38;5009824;28;20046;-89
2022/05/30 03:42:50;;;;;;;7.13;3.63;;;;;;;6.97;91.36;101128.16;5008414;28;20466;-89
2022/05/30 03:45:15;;;;;;;7.85;4.00;;;;;;;6.92;91.07;101131.88;5007665;28;20022;-89
2022/05/30 03:47:43;;;;;;;7.85;4.18;;;;;;;7.01;91.61;101136.88;5008309;28;20058;-88
2022/05/30 03:50:12;;;;;;;8.93;3.90;;;;;;;7.05;91.56;101142.94;5009115;28;20029;-89
2022/05/30 03:52:38;;;;;;;10.57;3.95;;;;;;;7.11;91.69;101146.28;5007026;28;20030;-89
2022/05/30 03:55:06;;;;;;;7.05;4.20;;;;;;;7.17;91.33;101148.72;5007568;28;20753;-91
2022/05/30 03:57:31;;;;;;;11.15;4.18;;;;;;;7.21;91.60;101141.53;5007988;28;20041;-89
2022/05/30 03:59:56;;;;;;;6.63;4.03;;;;;;;7.26;91.65;101136.09;5008974;28;20029;-89
2022/05/30 04:02:21;;;;;;;11.75;4.15;;;;;;;7.28;91.50;101135.16;5008791;28;20041;-88
2022/05/30 04:04:47;;;;;;;8.00;3.85;;;;;;;7.34;91.25;101139.38;5007316;28;20484;-90
2022/05/30 04:07:12;;;;;;;11.02;4.50;;;;;;;7.33;91.38;101138.50;5008917;28;20030;-90
2022/05/30 04:09:37;;;;;;;11.35;4.20;;;;;;;7.32;91.17;101136.78;5008794;28;20041;-90
2022/05/30 04:12:03;;;;;;;11.48;4.63;;;;;;;7.28;90.98;101135.16;5009235;28;20030;-88
2022/05/30 04:14:28;;;;;;;9.68;4.72;;;;;;;7.25;91.35;101135.25;5009558;28;20080;-90
2022/05/30 04:16:53;;;;;;;8.40;4.72;;;;;;;7.18;90.96;101123.97;5006457;28;20053;-90
2022/05/30 04:19:19;;;;;;;10.25;4.45;;;;;;;7.22;91.11;101128.25;5010766;28;20022;-90
2022/05/30 04:21:44;;;;;;;7.65;4.55;;;;;;;7.22;91.34;101132.69;5011176;28;20030;-90
2022/05/30 04:24:09;;;;;;;14.75;5.50;;;;;;;7.24;91.21;101130.88;5010519;28;20026;-90
2022/05/30 04:26:34;;;;;;;12.00;5.55;;;;;;;7.30;91.37;101133.31;5005544;28;20030;-89
2022/05/30 04:29:00;;;;;;;11.60;5.75;;;;;;;7.37;91.14;101128.69;5008171;28;20029;-90
2022/05/30 04:31:25;;;;;;;10.45;5.43;;;;;;;7.48;90.74;101135.34;5008701;28;20038;-89
2022/05/30 04:33:50;;;;;;;11.80;5.43;;;;;;;7.56;90.82;101131.56;5007859;28;20113;-89
2022/05/30 04:36:15;;;;;;;12.70;6.28;;;;;;;7.61;90.77;101134.94;5006585;28;20038;-89
2022/05/30 04:38:41;;;;;;;12.00;5.95;;;;;;;7.66;90.71;101131.22;5008041;28;20040;-89
2022/05/30 04:41:06;;;;;;;12.60;6.68;;;;;;;7.68;90.43;101131.16;5007970;28;20014;-90
2022/05/30 04:43:32;;;;;;;14.95;6.75;;;;;;;7.76;90.43;101131.75;5008049;28;20080;-88
2022/05/30 04:46:09;;;;;;;14.02;6.93;;;;;;;7.84;90.36;101136.78;5006218;28;20022;-89
2022/05/30 04:48:34;;;;;;;16.13;6.57;;;;;;;7.93;90.19;101139.97;5007890;28;20037;-89
2022/05/30 04:50:59;;;;;;;13.95;6.60;;;;;;;8.00;89.56;101135.34;5008051;28;20387;-90
2022/05/30 04:53:25;;;;;;;15.50;7.22;;;;;;;8.10;89.07;101141.16;5008379;28;20061;-89
2022/05/30 04:55:50;;;;;;;15.00;6.85;;;;;;;8.23;89.03;101148.66;5005558;28;20038;-90
2022/05/30 04:58:15;;;;;;;14.15;7.05;;;;;;;8.34;89.33;101148.25;5008617;28;20096;-89
2022/05/30 05:00:41;;;;;;;14.70;6.95;;;;;;;8.43;87.69;101141.75;5007773;28;20025;-90
2022/05/30 05:03:06;;;;;;;16.05;6.80;;;;;;;8.50;87.65;101153.03;5008002;28;20034;-90
2022/05/30 05:05:31;;;;;;;12.55;6.85;;;;;;;8.58;87.75;101153.59;5007582;28;20135;-90
2022/05/30 05:08:25;;;;;;;13.35;6.55;;;;;;;8.65;87.36;101153.31;4997610;28;20137;-90
2022/05/30 05:11:03;;;;;;;12.23;6.57;;;;;;;8.79;87.00;101165.19;4991618;28;20030;-90
2022/05/30 05:13:29;;;;;;;14.80;6.97;;;;;;;8.81;85.93;101165.97;4992922;28;20030;-89
2022/05/30 05:15:57;;;;;;;12.10;6.57;;;;;;;8.84;86.22;101149.94;5005940;28;20148;-90
2022/05/30 05:18:23;;;;;;;13.23;7.45;;;;;;;8.82;85.92;101163.28;5011667;28;20021;-88
2022/05/30 05:20:48;;;;;;;13.10;6.90;;;;;;;8.72;85.16;101151.28;5010927;28;20029;-88
2022/05/30 05:23:13;;;;;;;11.75;7.53;;;;;;;8.58;85.42;101157.13;5010089;28;20021;-90
2022/05/30 05:25:40;;;;;;;11.75;6.22;;;;;;;8.53;85.88;101163.50;5009249;28;20038;-88
2022/05/30 05:28:06;;;;;;;13.45;6.60;;;;;;;8.40;85.96;101150.72;5011795;28;20527;-89
2022/05/30 05:30:32;;;;;;;15.07;6.75;;;;;;;8.34;86.50;101150.88;5011512;28;20038;-89
2022/05/30 05:32:58;;;;;;;16.65;7.32;;;;;;;8.41;87.17;101163.03;5011078;28;20026;-88
2022/05/30 05:35:23;;;;;;;15.45;7.38;;;;;;;8.52;86.95;101159.13;5009649;28;20038;-90
2022/05/30 05:37:48;;;;;;;13.00;6.97;;;;;;;8.66;87.21;101162.13;5011518;28;20030;-90
2022/05/30 05:40:14;;;;;;;10.88;6.25;;;;;;;8.78;85.61;101160.78;5012576;28;20075;-90
2022/05/30 05:42:39;;;;;;;11.63;6.50;;;;;;;8.97;84.34;101165.31;5012339;28;20397;-89
2022/05/30 05:45:05;;;;;;;10.70;4.70;;;;;;;9.11;82.09;101171.88;5010296;28;20069;-89
2022/05/30 05:47:30;;;;;;;11.52;4.80;;;;;;;9.22;81.68;101175.84;4992949;28;20049;-90
2022/05/30 05:49:56;;;;;;;12.07;4.95;;;;;;;9.25;81.42;101160.72;5009693;28;20053;-89
2022/05/30 05:52:25;;;;;;;9.88;4.22;;;;;;;9.30;80.18;101166.72;5011236;28;20026;-89
2022/05/30 05:54:54;;;;;;;10.30;4.95;;;;;;;9.42;79.45;101180.38;5008286;28;20121;-89
2022/05/30 05:57:19;;;;;;;10.50;4.90;;;;;;;9.53;80.46;101176.38;5011086;28;20033;-88
2022/05/30 05:59:45;;;;;;;13.82;4.45;;;;;;;9.52;78.40;101179.97;5010507;28;20030;-88
2022/05/30 06:02:10;;;;;;;10.90;4.57;;;;;;;9.53;78.62;101174.63;5011317;28;20308;-88
2022/05/30 06:04:37;;;;;;;12.00;4.75;;;;;;;9.68;76.99;101181.06;5008792;28;20026;-88
2022/05/30 06:07:02;;;;;;;7.43;3.97;;;;;;;9.90;76.96;101178.38;5011531;28;20069;-91
2022/05/30 06:09:28;;;;;;;13.25;4.78;;;;;;;10.15;76.84;101172.84;5010632;28;20423;-90
2022/05/30 06:11:56;;;;;;;10.15;3.90;;;;;;;10.35;76.56;101172.88;5010419;28;20053;-89
2022/05/30 06:14:22;;;;;;;8.88;3.83;;;;;;;10.57;74.88;101178.09;5009747;28;20030;-89
2022/05/30 06:16:47;;;;;;;11.63;3.50;;;;;;;10.79;74.98;101174.47;5010339;28;20040;-90
2022/05/30 06:19:12;;;;;;;8.30;3.63;;;;;;;11.11;74.21;101181.78;5011151;28;20134;-89
2022/05/30 06:21:38;;;;;;;7.03;3.30;;;;;;;11.41;70.95;101183.91;5010935;28;20026;-88
2022/05/30 06:24:05;;;;;;;15.98;6.88;;;;;;;11.72;70.29;101177.94;5008750;28;20061;-89
2022/05/30 06:26:30;;;;;;;8.02;3.00;;;;;;;11.98;68.56;101173.09;5013013;28;20026;-89
2022/05/30 06:28:56;;;;;;;9.40;2.95;;;;;;;12.09;67.42;101176.94;5012743;28;20424;-90
2022/05/30 06:31:24;;;;;;;9.32;2.78;;;;;;;11.96;66.69;101184.72;5012206;28;20319;-89
2022/05/30 06:33:49;;;;;;;12.40;2.85;;;;;;;11.91;67.42;101164.53;5008653;28;20034;-91
2022/05/30 06:36:17;;;;;;;5.32;2.03;;;;;;;11.84;64.95;101173.81;5009803;28;20447;-88
2022/05/30 06:38:43;;;;;;;7.63;1.70;;;;;;;11.89;64.93;101183.31;5009693;28;20033;-89
2022/05/30 06:41:18;;;;;;;7.18;2.17;;;;;;;11.98;65.66;101178.44;5010472;28;20026;-90
2022/05/30 06:43:44;;;;;;;5.53;1.88;;;;;;;12.05;64.72;101179.84;5008111;28;20218;-89
2022/05/30 06:46:12;;;;;;;9.70;2.08;;;;;;;12.17;62.74;101181.88;5009612;28;20040;-90
2022/05/30 06:48:37;;;;;;;3.35;1.75;;;;;;;12.38;62.45;101185.25;5009353;28;20100;-90
2022/05/30 06:51:05;;;;;;;5.55;2.20;;;;;;;12.48;62.49;101186.47;5009501;28;20030;-90
2022/05/30 06:53:31;;;;;;;5.07;2.00;;;;;;;12.63;63.56;101182.97;5008771;28;20026;-90
2022/05/30 06:55:56;;;;;;;5.13;1.50;;;;;;;12.76;61.35;101198.34;5008844;28;20075;-90
2022/05/30 06:58:21;;;;;;;7.22;1.88;;;;;;;12.78;59.82;101193.75;5010990;28;20028;-90
2022/05/30 07:00:47;;;;;;;5.55;1.63;;;;;;;12.84;59.59;101188.09;5011516;28;20202;-90
2022/05/30 07:03:15;;;;;;;5.82;1.70;;;;;;;13.12;59.79;101192.75;5004764;28;20076;-89
2022/05/30 07:05:43;;;;;;;4.57;1.52;;;;;;;13.38;59.46;101189.53;5006399;28;20036;-91
2022/05/30 07:08:09;;;;;;;4.47;1.63;;;;;;;13.54;58.52;101199.34;5009472;28;20030;-90
2022/05/30 07:10:37;;;;;;;4.13;1.27;;;;;;;13.62;56.12;101197.94;5009379;28;20151;-88
2022/05/30 07:13:04;;;;;;;4.57;1.40;;;;;;;13.54;55.04;101192.16;5009525;28;20022;-89
2022/05/30 07:15:31;;;;;;;5.00;1.50;;;;;;;13.48;54.67;101197.88;5007381;28;20545;-90
2022/05/30 07:17:57;;;;;;;5.75;1.55;;;;;;;13.73;54.25;101197.31;5010281;28;20034;-91
2022/05/30 07:20:23;;;;;;;3.05;1.10;;;;;;;13.94;54.01;101193.38;5009089;28;20029;-90
2022/05/30 07:22:48;;;;;;;3.42;1.50;;;;;;;14.32;52.25;101192.88;5009159;28;20033;-89
2022/05/30 07:25:14;;;;;;;5.22;1.42;;;;;;;14.52;51.36;101196.22;5008045;28;20037;-90
2022/05/30 07:27:39;;;;;;;3.90;1.05;;;;;;;14.93;49.87;101193.63;5008745;28;20030;-91
2022/05/30 07:30:05;;;;;;;4.25;1.23;;;;;;;15.51;48.49;101199.69;5008170;28;20045;-91
2022/05/30 07:32:32;;;;;;;3.50;1.08;;;;;;;15.86;47.59;101197.41;5009500;28;20029;-91
2022/05/30 07:34:58;;;;;;;5.13;1.17;;;;;;;16.39;46.66;101196.41;5007712;28;20419;-91
2022/05/30 07:37:23;;;;;;;3.97;0.88;;;;;;;16.89;44.38;101192.00;5010890;28;20018;-92
2022/05/30 07:39:49;;;;;;;6.00;1.45;;;;;;;17.73;43.41;101198.41;5009866;28;20026;-92
2022/05/30 07:42:14;;;;;;;3.95;0.90;;;;;;;18.58;39.70;101179.31;5010317;28;20037;-91
2022/05/30 07:44:39;;;;;;;1.83;0.80;;;;;;;19.14;40.58;101185.56;5008816;28;20548;-92
2022/05/30 07:47:06;;;;;;;2.88;1.40;;;;;;;18.88;39.45;101189.50;5011197;28;20518;-91
2022/05/30 07:49:32;;;;;;;4.57;1.50;;;;;;;17.99;39.60;101188.38;5010580;28;20072;-93
2022/05/30 07:51:57;;;;;;;5.13;1.40;;;;;;;16.96;41.71;101186.16;5010877;28;20030;-92
2022/05/30 07:54:23;;;;;;;4.45;1.02;;;;;;;16.26;44.08;101179.44;5008342;28;20551;-92
2022/05/30 07:56:48;;;;;;;3.97;1.38;;;;;;;15.77;44.85;101179.22;5010355;28;20038;-90
2022/05/30 07:59:13;;;;;;;3.55;1.00;;;;;;;16.41;45.24;101177.50;5010738;28;20387;-92
2022/05/30 08:01:39;;;;;;;8.93;1.67;;;;;;;16.30;44.06;101178.25;5006511;28;20022;-92
2022/05/30 08:04:04;;;;;;;7.22;1.70;;;;;;;15.78;46.48;101184.50;4999989;28;20040;-90
2022/05/30 08:06:30;;;;;;;7.65;1.75;;;;;;;16.66;45.00;101190.06;5009158;28;20419;-92
2022/05/30 08:08:56;;;;;;;4.47;1.50;;;;;;;17.76;43.71;101186.56;5008423;28;20033;-90
2022/05/30 08:11:23;;;;;;;7.00;2.08;;;;;;;19.12;41.89;101190.22;5009489;28;20026;-91
2022/05/30 08:13:50;;;;;;;4.70;1.90;;;;;;;20.07;38.40;101184.19;5007577;28;20068;-92
2022/05/30 08:16:19;;;;;;;3.92;1.85;;;;;;;20.78;37.56;101187.03;5009328;28;20037;-91
2022/05/30 08:18:44;;;;;;;5.55;1.83;;;;;;;20.64;36.55;101180.97;5009090;28;20266;-92
2022/05/30 08:21:09;;;;;;;5.95;1.55;;;;;;;19.62;37.59;101195.16;5009514;28;20029;-90
2022/05/30 08:23:35;;;;;;;6.85;1.83;;;;;;;18.80;38.29;101187.41;5007970;28;20054;-92
2022/05/30 08:26:00;;;;;;;4.28;1.70;;;;;;;18.16;37.39;101193.31;5009410;28;20639;-92
2022/05/30 08:28:26;;;;;;;3.78;1.35;;;;;;;17.76;39.31;101194.63;5009205;28;20026;-91
2022/05/30 08:30:51;;;;;;;3.53;1.50;;;;;;;17.47;40.00;101196.78;5010484;28;20091;-91
2022/05/30 08:33:19;;;;;;;5.60;1.95;;;;;;;17.13;39.17;101199.25;5010236;28;20112;-92
2022/05/30 08:35:45;;;;;;;4.53;1.75;;;;;;;16.87;41.30;101193.06;5008710;28;20487;-91
2022/05/30 08:38:11;;;;;;;2.63;1.58;;;;;;;16.88;41.55;101192.94;5009136;28;20364;-90
2022/05/30 08:43:34;;;;;;;5.10;2.00;;;;;;;17.18;41.24;101197.13;5011140;28;20068;-91
2022/05/30 08:46:19;;;;;;;5.75;1.90;;;;;;;17.40;43.24;101197.25;5012852;28;20456;-91
2022/05/30 08:49:16;;;;;;;6.07;1.85;;;;;;;17.35;42.30;101195.88;5011733;28;20037;-91
2022/05/30 08:52:13;;;;;;;5.93;1.73;;;;;;;18.15;40.56;101205.06;5011745;28;20034;-90
2022/05/30 08:54:47;;;;;;;5.45;1.88;;;;;;;17.70;40.38;101209.38;5010191;28;20049;-91
2022/05/30 08:57:26;;;;;;;5.43;2.00;;;;;;;17.44;41.79;101197.88;5012130;28;20081;-91
2022/05/30 09:00:07;;;;;;;3.78;1.75;;;;;;;17.02;41.76;101205.44;5010445;28;20022;-91
2022/05/30 09:02:45;;;;;;;3.83;2.05;;;;;;;16.61;42.06;101208.34;4992601;28;20184;-91
2022/05/30 09:05:19;;;;;;;4.57;1.90;;;;;;;16.45;43.76;101211.22;5011814;28;20018;-91
2022/05/30 09:07:50;;;;;;;3.50;1.58;;;;;;;16.49;42.70;101210.06;5011777;28;20151;-92
2022/05/30 09:10:40;;;;;;;6.38;1.92;;;;;;;16.38;43.87;101207.25;5012468;28;20117;-92
2022/05/30 09:13:17;;;;;;;4.40;1.70;;;;;;;16.04;43.60;101214.94;5011319;28;20278;-92
2022/05/30 09:15:49;;;;;;;3.85;1.63;;;;;;;15.79;45.96;101207.66;5011474;28;20026;-93
2022/05/30 09:18:48;;;;;;;4.22;2.00;;;;;;;15.80;45.87;101212.09;5011687;28;20368;-91
2022/05/30 09:21:15;;;;;;;6.10;2.17;;;;;;;15.32;44.69;101217.00;4996110;28;20074;-91
2022/05/30 09:23:40;;;;;;;5.00;1.88;;;;;;;15.04;46.05;101214.38;5009940;28;20029;-91
2022/05/30 09:26:08;;;;;;;3.85;1.92;;;;;;;14.79;46.46;101213.22;5011452;28;20032;-91
2022/05/30 09:28:39;;;;;;;3.15;1.92;;;;;;;14.54;46.53;101215.72;5011359;28;20030;-90
2022/05/30 09:31:38;;;;;;;4.65;1.92;;;;;;;14.46;46.27;101210.78;5011329;28;20045;-91
2022/05/30 09:34:32;;;;;;;3.47;1.60;;;;;;;14.38;47.30;101208.59;5010247;28;20388;-93
2022/05/30 09:36:57;;;;;;;4.73;1.63;;;;;;;14.27;46.92;101202.16;5011299;28;20037;-91
2022/05/30 09:39:23;;;;;;;5.90;1.80;;;;;;;14.15;48.75;101207.28;5011761;28;20034;-91
2022/05/30 09:41:55;;;;;;;3.95;1.42;;;;;;;14.15;47.84;101219.81;5010843;28;20021;-92
2022/05/30 09:44:26;;;;;;;4.72;1.60;;;;;;;14.16;49.00;101218.88;5008986;28;20034;-91
2022/05/30 09:46:56;;;;;;;10.43;1.88;;;;;;;14.28;48.54;101215.44;5011169;28;20088;-92
2022/05/30 09:49:27;;;;;;;5.43;1.50;;;;;;;14.44;48.12;101212.72;5012265;28;20022;-92
2022/05/30 09:52:04;;;;;;;4.57;1.45;;;;;;;14.74;46.44;101215.34;5011072;28;20037;-92
2022/05/30 09:54:33;;;;;;;4.30;1.55;;;;;;;14.90;46.44;101217.94;5010814;28;20029;-93
2022/05/30 09:57:16;;;;;;;5.60;1.60;;;;;;;15.28;46.37;101219.97;5011924;28;20022;-93
2022/05/30 09:59:44;;;;;;;3.90;1.70;;;;;;;15.65;43.90;101216.66;5009201;28;20037;-92
2022/05/30 10:02:22;;;;;;;3.20;2.20;;;;;;;16.13;45.64;101210.75;5009934;28;20025;-93
2022/05/30 10:05:04;;;;;;;4.18;1.95;;;;;;;16.76;43.81;101209.09;5010335;28;20034;-91
2022/05/30 10:07:32;;;;;;;5.30;1.75;;;;;;;17.30;42.55;101217.72;5011313;28;20306;-92
2022/05/30 10:10:18;;;;;;;5.13;1.88;;;;;;;17.83;41.10;101206.66;5010812;28;20022;-90
2022/05/30 10:12:56;;;;;;;4.85;1.55;;;;;;;18.94;39.23;101212.44;5008441;28;20034;-93
2022/05/30 10:15:30;;;;;;;5.93;1.60;;;;;;;19.43;37.76;101201.19;5010573;28;20030;-92
2022/05/30 10:18:17;;;;;;;5.20;1.65;;;;;;;19.42;36.95;101203.03;5010941;28;20057;-93
2022/05/30 10:21:25;;;;;;;3.85;1.55;;;;;;;19.36;40.12;101208.97;5010865;28;20099;-92
2022/05/30 10:30:42;;;;;;;4.32;1.77;;;;;;;18.27;38.58;101218.59;4911719;29;20120;-93
2022/05/30 10:33:20;;;;;;;4.53;1.60;;;;;;;18.18;40.10;101230.91;4905206;29;20043;-91
2022/05/30 10:35:54;;;;;;;3.45;2.00;;;;;;;18.02;37.86;101222.31;4878738;29;20547;-91
2022/05/30 10:38:22;;;;;;;5.63;1.83;;;;;;;20.67;34.68;101219.59;4895548;29;20596;-96
2022/05/30 10:41:13;;;;;;;5.32;1.77;;;;;;;23.77;33.67;101201.19;4894708;29;20184;-93
2022/05/30 10:43:45;;;;;;;2.95;1.23;;;;;;;26.23;25.43;101211.44;4893961;29;20088;-93
2022/05/30 10:46:18;;;;;;;4.22;1.42;;;;;;;28.33;24.27;101206.22;4892736;29;20049;-94
2022/05/30 10:48:56;;;;;;;3.22;1.25;;;;;;;30.22;23.12;101212.75;4891929;29;20141;-94
2022/05/30 10:51:25;;;;;;;2.30;1.08;;;;;;;31.16;18.73;101208.72;4892810;29;20032;-92
2022/05/30 10:53:57;;;;;;;2.55;1.10;;;;;;;32.13;18.25;101216.66;4907249;29;20055;-92
2022/05/30 10:56:35;;;;;;;4.25;1.65;;;;;;;33.53;20.37;101213.66;4910680;29;20032;-92
2022/05/30 10:59:11;;;;;;;2.45;1.20;;;;;;;34.42;16.16;101216.19;4910127;29;20169;-91
2022/05/30 11:01:44;;;;;;;3.72;1.90;;;;;;;34.64;17.16;101227.72;4992843;28;20061;-92
2022/05/30 11:04:39;;;;;;;3.90;1.20;;;;;;;35.56;16.53;101211.13;5007511;28;20042;-92
2022/05/30 11:07:22;;;;;;;5.05;1.40;;;;;;;35.29;14.91;101215.31;5009638;28;20112;-93
2022/05/30 11:09:56;;;;;;;3.63;1.35;;;;;;;35.61;16.26;101214.03;5009567;28;20030;-91
2022/05/30 11:12:34;;;;;;;2.65;1.55;;;;;;;34.65;17.68;101221.09;5007745;28;20030;-93
2022/05/30 11:14:59;;;;;;;3.22;1.20;;;;;;;31.38;18.63;101212.22;5009476;28;20056;-93
2022/05/30 11:17:38;;;;;;;2.57;1.30;;;;;;;28.55;21.63;101219.03;5010235;28;20464;-90
2022/05/30 11:20:21;;;;;;;3.00;1.30;;;;;;;26.33;23.92;101225.75;5009379;28;20080;-92
2022/05/30 11:22:49;;;;;;;2.85;1.58;;;;;;;24.55;26.30;101220.41;5006771;28;20034;-91
2022/05/30 11:25:17;;;;;;;4.40;1.27;;;;;;;23.06;26.85;101217.34;5009485;28;20105;-90
2022/05/30 11:28:30;;;;;;;4.90;1.80;;;;;;;21.76;29.37;101218.81;5008207;28;20451;-91
2022/05/30 11:31:04;;;;;;;3.92;1.48;;;;;;;20.54;31.14;101219.81;5008524;28;20061;-90
2022/05/30 11:33:44;;;;;;;8.82;1.58;;;;;;;20.08;31.48;101221.00;5007557;28;20041;-91
2022/05/30 11:36:36;;;;;;;3.38;1.13;;;;;;;19.68;29.43;101216.25;5009418;28;20407;-91
2022/05/30 11:39:22;;;;;;;3.85;1.25;;;;;;;19.55;31.01;101213.69;5008967;28;20036;-91
2022/05/30 11:42:03;;;;;;;3.95;1.48;;;;;;;19.32;30.31;101220.97;5006511;28;20030;-91
2022/05/30 11:44:51;;;;;;;8.63;2.42;;;;;;;18.97;32.37;101212.19;5008826;28;20068;-91
2022/05/30 11:47:34;;;;;;;8.25;2.10;;;;;;;18.72;33.48;101199.78;5009037;28;20117;-93
2022/05/30 11:50:26;;;;;;;4.30;1.47;;;;;;;19.01;32.97;101203.72;5009111;28;20112;-91
2022/05/30 11:53:24;;;;;;;3.97;1.30;;;;;;;19.50;31.34;101206.97;5008001;28;20030;-92